Long Beach /Daugherty Field/ Airport
KLGB : now visible

Airfield :











YOU CAN JOIN US ON...

 
LOGIN :

Register | Disclaimer

   EN    FR    IT 

 









Legend :    VFR   Marginal VFR   IFR   Intensive IFR   Very Intensive IFR
Visi :
Ceiling :
>= 8 km
>= 3000ft
5 to 8 km
1000 to 3000 ft
1500m to 5 km
500 to 1000 ft
800 to 1500m
200 to 500 ft
< 800m
< 200 ft
Symbols :   Thunderstorms  Fog  Heavy snow  Heavy precipitations  Wind > 20 kt






- Airport Elevation : 60 ft
- IATA code : LGB


KLGB - Long Beach /Daugherty Field/

CURRENT METAR :
  • 121553Z 00000KT 6SM HZ OVC016 17/13 A3002 RMK AO2 SLP163 T01720133

EXPIRED METARs :
  • 121453Z 36003KT 6SM HZ OVC015 17/13 A3001 RMK AO2 SLP162 T01670128 53010
  • 121414Z 00000KT 6SM HZ OVC015 17/13 A3000 RMK AO2 T01670128
  • 121353Z 35004KT 6SM HZ OVC014 17/13 A3000 RMK AO2 SLP158 T01670128

TAF KLGB
Valid from the 12 at 12:00 until the 13 at 12:00 UTC


121122Z 1212/1312 VRB03KT P6SM OVC016
FM121600 VRB03KT P6SM OVC022
FM122000 20006KT P6SM SKC
FM130000 30008KT P6SM SKC
FM130500 30006KT P6SM OVC015
FM130800 VRB03KT P6SM OVC022
KZLA FIR / North America



MET'MAP, your aeronautical weather chart ! - Copyright ORBIFLY December 2007 - Disclaimer

ORBIFLY MET'MAP TEAM :

Programming & Development : Alexandra Zaïnal
Concept & original design : Baudouin d'Aumeries
Assistance for programming : Marc-Olivier Méhu
Technical & hardware support : Manuel Goepfert

Contact : metmap@orbifly.com




SOURCES & CREDITS :

   NOAA       Earth
Advisory